Libagon, Philippines
Current Conditions -  °F | °C
As of 4:00 PM on Saturday 25 Oct 2014 (Local Time) from RPVM Reporting Station
Scattered Clouds Scattered Clouds  
Wind Chill: 86°   Ceiling: Unl
Heat Index: 95°   Visibility: 6mi
Dew Point: 75°   Wind: 9mph
Humidity: 70%   Direction: 30°NNE
Pressure: 29.83"   Gusts: NA
Location:  10.3°N, 125.06°E
Report Text: RPVM 250800Z 03008KT 9999 FEW018CB SCT300 30/24 Q1010 RMK A2983 CB S THRU SW
Loading
Personal Weather Stations






























Interactive Weather Map
Tropical Storm Tracking
New forecast layout! Learn more

10-Day Weather Forecast

Advertisements
Track Severe Weather on mobile